createdAt,value
2022-08-05T00:00:16.863Z,2.35
2022-08-05T00:02:51.117Z,1.42
2022-08-05T00:05:27.160Z,2.00
2022-08-05T00:08:34.124Z,2.10
2022-08-05T00:11:00.855Z,2.22
2022-08-05T00:13:38.431Z,1.70
2022-08-05T00:16:09.603Z,2.30
2022-08-05T00:18:44.239Z,2.03
2022-08-05T00:21:14.286Z,1.85
2022-08-05T00:23:46.718Z,1.83
2022-08-05T00:26:22.308Z,1.77
2022-08-05T00:28:50.849Z,1.70
2022-08-05T00:31:52.998Z,1.55
2022-08-05T00:34:54.674Z,1.65
2022-08-05T00:37:13.221Z,1.70
2022-08-05T00:39:44.140Z,2.05
2022-08-05T00:42:33.206Z,1.95
2022-08-05T00:45:01.576Z,1.92
2022-08-05T00:47:53.524Z,2.80
2022-08-05T00:50:21.067Z,2.35
2022-08-05T00:52:49.384Z,2.40
2022-08-05T00:55:19.011Z,3.15
2022-08-05T00:57:58.797Z,2.90
2022-08-05T01:00:28.703Z,3.05
2022-08-05T01:02:58.045Z,2.83
2022-08-05T01:05:30.035Z,2.75
2022-08-05T01:08:40.259Z,3.85
2022-08-05T01:10:53.580Z,3.08
2022-08-05T01:13:57.432Z,3.22
2022-08-05T01:16:26.396Z,2.80
2022-08-05T01:19:00.689Z,2.72
2022-08-05T01:21:58.245Z,2.90
2022-08-05T01:24:47.734Z,3.03
2022-08-05T01:27:34.599Z,3.10
2022-08-05T01:30:20.232Z,3.38
2022-08-05T01:33:08.057Z,3.40
2022-08-05T01:35:50.678Z,3.30
2022-08-05T01:38:24.802Z,3.42
2022-08-05T01:40:59.804Z,3.15
2022-08-05T01:43:30.773Z,3.05
2022-08-05T01:46:07.143Z,3.10
2022-08-05T01:48:46.182Z,3.08
2022-08-05T01:51:18.971Z,3.20
2022-08-05T01:53:56.988Z,3.28
2022-08-05T01:58:13.077Z,2.85
2022-08-05T01:59:22.691Z,2.95
2022-08-05T02:01:57.863Z,2.65
2022-08-05T02:04:29.061Z,3.30
2022-08-05T02:06:59.059Z,3.05
2022-08-05T02:09:28.197Z,2.58
2022-08-05T02:12:04.484Z,3.17
2022-08-05T02:14:38.519Z,2.78
2022-08-05T02:17:17.037Z,2.72
2022-08-05T02:20:02.929Z,3.13
2022-08-05T02:22:36.580Z,2.88
2022-08-05T02:25:12.622Z,2.78
2022-08-05T02:27:58.212Z,2.92
2022-08-05T02:30:32.127Z,2.58
2022-08-05T02:33:06.656Z,3.17
2022-08-05T02:35:38.528Z,3.00
2022-08-05T02:38:19.982Z,3.15
2022-08-05T02:40:55.997Z,2.83
2022-08-05T02:45:55.035Z,2.78
2022-08-05T02:48:29.536Z,2.65
2022-08-05T02:51:01.002Z,2.88
2022-08-05T02:53:39.103Z,2.90
2022-08-05T02:56:18.604Z,2.83
2022-08-05T02:58:51.296Z,2.95
2022-08-05T03:01:24.916Z,2.70
2022-08-05T03:04:03.181Z,3.17
2022-08-05T03:06:57.085Z,3.15
2022-08-05T03:09:37.399Z,3.05
2022-08-05T03:12:08.314Z,2.95
2022-08-05T03:14:39.028Z,3.03
2022-08-05T03:17:14.337Z,2.45
2022-08-05T03:19:45.561Z,2.95
2022-08-05T03:22:16.618Z,3.30
2022-08-05T03:24:50.775Z,3.30
2022-08-05T03:27:20.101Z,3.22
2022-08-05T03:30:07.243Z,3.45
2022-08-05T03:32:37.200Z,3.30
2022-08-05T03:35:08.877Z,2.83
2022-08-05T03:37:45.906Z,3.33
2022-08-05T03:40:24.371Z,3.40
2022-08-05T03:43:15.702Z,3.30
2022-08-05T03:45:58.170Z,3.17
2022-08-05T03:48:27.390Z,3.10
2022-08-05T03:52:35.218Z,3.10
2022-08-05T03:55:52.347Z,3.40
2022-08-05T03:56:48.291Z,2.65
2022-08-05T04:01:52.323Z,3.20
2022-08-05T04:04:22.646Z,2.97
2022-08-05T04:06:56.690Z,3.13
2022-08-05T04:09:26.359Z,3.10
2022-08-05T04:11:56.891Z,3.67
2022-08-05T04:14:29.962Z,3.80
2022-08-05T04:17:00.928Z,4.30
2022-08-05T04:19:31.444Z,3.40
2022-08-05T04:22:08.964Z,4.18
2022-08-05T04:24:43.856Z,3.53
2022-08-05T04:27:13.280Z,3.70
2022-08-05T04:29:41.712Z,3.35
2022-08-05T04:32:10.465Z,4.28
2022-08-05T04:34:42.980Z,3.90
2022-08-05T04:37:12.964Z,3.60
2022-08-05T04:39:41.140Z,3.40
2022-08-05T04:42:09.997Z,3.72
2022-08-05T04:44:39.039Z,3.03
2022-08-05T04:47:09.735Z,3.63
2022-08-05T04:50:01.813Z,3.63
2022-08-05T04:52:29.418Z,3.90
2022-08-05T04:55:03.731Z,3.58
2022-08-05T04:57:47.905Z,3.88
2022-08-05T05:00:17.115Z,3.17
2022-08-05T05:02:45.275Z,3.40
2022-08-05T05:05:26.399Z,3.38
2022-08-05T05:08:02.586Z,3.28
2022-08-05T05:10:33.281Z,3.38
2022-08-05T05:13:04.336Z,3.58
2022-08-05T05:15:56.763Z,3.47
2022-08-05T05:18:31.135Z,3.85
2022-08-05T05:21:03.450Z,3.80
2022-08-05T05:23:39.328Z,3.45
2022-08-05T05:26:28.737Z,3.67
2022-08-05T05:29:02.224Z,3.95
2022-08-05T05:34:02.493Z,4.00
2022-08-05T05:36:31.841Z,3.83
2022-08-05T05:39:03.873Z,4.00
2022-08-05T05:41:40.446Z,4.30
2022-08-05T05:44:35.806Z,3.72
2022-08-05T05:47:04.082Z,3.50
2022-08-05T05:49:33.466Z,3.88
2022-08-05T05:52:05.876Z,3.60
2022-08-05T05:54:50.389Z,3.47
2022-08-05T05:57:19.744Z,3.53
2022-08-05T05:59:48.995Z,3.63
2022-08-05T06:02:32.447Z,3.92
2022-08-05T06:05:10.453Z,3.25
2022-08-05T06:07:57.576Z,3.13
2022-08-05T06:10:36.309Z,3.47
2022-08-05T06:13:05.306Z,3.63
2022-08-05T06:16:31.006Z,3.97
2022-08-05T06:18:22.048Z,3.42
2022-08-05T06:20:59.780Z,3.70
2022-08-05T06:23:27.934Z,3.42
2022-08-05T06:26:21.669Z,3.80
2022-08-05T06:28:53.237Z,3.72
2022-08-05T06:31:21.877Z,4.22
2022-08-05T06:34:07.775Z,3.75
2022-08-05T06:36:57.513Z,4.60
2022-08-05T06:39:27.057Z,4.10
2022-08-05T06:41:58.869Z,3.50
2022-08-05T06:44:28.162Z,4.00
2022-08-05T06:46:56.382Z,4.13
2022-08-05T06:49:59.902Z,3.97
2022-08-05T06:52:37.496Z,4.22
2022-08-05T06:55:00.941Z,4.43
2022-08-05T06:58:03.044Z,3.95
2022-08-05T07:00:22.132Z,4.53
2022-08-05T07:02:53.744Z,4.53
2022-08-05T07:08:10.926Z,4.40
2022-08-05T07:10:53.403Z,3.95
2022-08-05T07:13:57.226Z,3.97
2022-08-05T07:17:58.331Z,4.28
2022-08-05T07:20:22.999Z,4.25
2022-08-05T07:22:28.406Z,4.57
2022-08-05T07:24:59.585Z,4.63
2022-08-05T07:27:58.605Z,4.63
2022-08-05T07:30:33.681Z,4.63
2022-08-05T07:33:05.460Z,4.30
2022-08-05T07:35:56.081Z,4.25
2022-08-05T07:38:34.126Z,4.22
2022-08-05T07:42:08.072Z,4.10
2022-08-05T07:43:56.426Z,4.30
2022-08-05T07:46:27.061Z,3.90
2022-08-05T07:49:03.477Z,4.38
2022-08-05T07:51:36.625Z,3.33
2022-08-05T07:54:08.289Z,3.42
2022-08-05T07:57:00.003Z,3.70
2022-08-05T07:59:38.069Z,3.28
2022-08-05T08:02:15.220Z,3.22
2022-08-05T08:04:44.759Z,3.55
2022-08-05T08:07:13.737Z,3.83
2022-08-05T08:09:41.840Z,3.67
2022-08-05T08:12:19.910Z,3.50
2022-08-05T08:15:02.561Z,3.53
2022-08-05T08:17:33.337Z,4.13
2022-08-05T08:20:22.498Z,3.58
2022-08-05T08:22:55.772Z,3.33
2022-08-05T08:25:26.740Z,4.35
2022-08-05T08:28:18.458Z,3.65
2022-08-05T08:31:01.016Z,3.15
2022-08-05T08:33:30.540Z,3.33
2022-08-05T08:36:40.105Z,3.33
2022-08-05T08:38:55.448Z,4.35
2022-08-05T08:41:26.255Z,3.53
2022-08-05T08:45:19.237Z,3.80
2022-08-05T08:47:47.626Z,3.33
2022-08-05T08:50:14.547Z,3.15
2022-08-05T08:52:51.775Z,3.15
2022-08-05T08:55:32.041Z,3.20
2022-08-05T08:58:12.901Z,3.00
2022-08-05T09:00:43.325Z,3.30
2022-08-05T09:06:09.306Z,2.40
2022-08-05T09:08:34.105Z,2.28
2022-08-05T09:11:02.275Z,1.58
2022-08-05T09:14:09.396Z,2.10
2022-08-05T09:16:20.991Z,1.73
2022-08-05T09:18:55.389Z,1.83
2022-08-05T09:22:23.299Z,1.75
2022-08-05T09:24:17.802Z,1.70
2022-08-05T09:26:51.713Z,1.95
2022-08-05T09:29:20.445Z,2.10
2022-08-05T09:32:41.638Z,2.20
2022-08-05T09:34:58.539Z,2.30
2022-08-05T09:38:17.654Z,1.90
2022-08-05T09:40:32.280Z,2.07
2022-08-05T09:43:01.801Z,1.80
2022-08-05T09:46:07.239Z,1.90
2022-08-05T09:48:28.371Z,1.92
2022-08-05T09:50:58.244Z,2.22
2022-08-05T09:53:54.923Z,2.30
2022-08-05T09:56:26.302Z,2.13
2022-08-05T09:58:58.933Z,2.05
2022-08-05T10:01:32.382Z,2.15
2022-08-05T10:04:04.510Z,2.17
2022-08-05T10:06:40.463Z,2.53
2022-08-05T10:09:24.934Z,2.08
2022-08-05T10:12:18.525Z,2.30
2022-08-05T10:15:16.421Z,2.15
2022-08-05T10:18:10.773Z,2.50
2022-08-05T10:20:42.875Z,2.47
2022-08-05T10:23:34.118Z,2.22
2022-08-05T10:26:07.077Z,2.35
2022-08-05T10:28:36.558Z,2.30
2022-08-05T10:32:52.563Z,2.42
2022-08-05T10:33:54.390Z,2.53
2022-08-05T10:36:23.674Z,2.38
2022-08-05T10:39:00.361Z,2.15
2022-08-05T10:41:46.436Z,2.30
2022-08-05T10:44:20.094Z,2.90
2022-08-05T10:46:50.655Z,2.63
2022-08-05T10:49:27.567Z,2.97
2022-08-05T10:52:03.260Z,2.63
2022-08-05T10:54:56.130Z,2.72
2022-08-05T10:57:32.076Z,3.00
2022-08-05T11:00:22.668Z,2.72
2022-08-05T11:03:25.629Z,2.70
2022-08-05T11:06:16.155Z,2.00
2022-08-05T11:09:17.038Z,2.50
2022-08-05T11:11:52.886Z,3.08
2022-08-05T11:14:57.620Z,2.83
2022-08-05T11:18:00.179Z,2.53
2022-08-05T11:20:43.956Z,2.70
2022-08-05T11:24:04.448Z,2.80
2022-08-05T11:26:28.905Z,2.75
2022-08-05T11:29:11.646Z,2.67
2022-08-05T11:31:56.361Z,3.08
2022-08-05T11:34:47.614Z,3.90
2022-08-05T11:38:36.432Z,3.90
2022-08-05T11:41:03.456Z,3.47
2022-08-05T11:44:06.951Z,4.15
2022-08-05T11:46:37.843Z,4.07
2022-08-05T11:49:27.690Z,4.85
2022-08-05T11:51:57.659Z,5.53
2022-08-05T11:54:33.355Z,5.50
2022-08-05T11:57:08.520Z,6.18
2022-08-05T11:59:52.322Z,6.13
2022-08-05T12:02:31.217Z,6.40
2022-08-05T12:05:07.327Z,7.13
2022-08-05T12:08:03.664Z,7.05
2022-08-05T12:10:45.584Z,7.60
2022-08-05T12:13:28.119Z,7.63
2022-08-05T12:16:14.139Z,8.95
2022-08-05T12:18:52.738Z,10.25
2022-08-05T12:21:24.940Z,10.40
2022-08-05T12:24:04.432Z,11.18
2022-08-05T12:26:33.763Z,10.77
2022-08-05T12:29:03.252Z,10.05
2022-08-05T12:31:47.619Z,11.05
2022-08-05T12:34:23.709Z,9.52
2022-08-05T12:36:57.019Z,10.60
2022-08-05T12:39:34.370Z,9.63
2022-08-05T12:42:10.180Z,8.60
2022-08-05T12:44:44.540Z,8.73
2022-08-05T12:47:17.102Z,9.32
2022-08-05T12:50:04.071Z,8.63
2022-08-05T12:52:39.702Z,8.80
2022-08-05T12:55:23.549Z,8.75
2022-08-05T12:58:49.001Z,8.88
2022-08-05T13:02:01.238Z,8.68
2022-08-05T13:03:41.431Z,8.50
2022-08-05T13:06:16.371Z,8.30
2022-08-05T13:08:51.931Z,8.27
2022-08-05T13:12:02.352Z,8.45
2022-08-05T13:14:36.128Z,7.70
2022-08-05T13:17:09.339Z,8.65
2022-08-05T13:19:51.746Z,8.52
2022-08-05T13:22:29.262Z,9.68
2022-08-05T13:25:05.472Z,8.88
2022-08-05T13:27:38.184Z,8.43
2022-08-05T13:30:34.571Z,8.38
2022-08-05T13:33:01.624Z,7.43
2022-08-05T13:35:47.352Z,7.03
2022-08-05T13:38:30.936Z,6.82
2022-08-05T13:41:03.728Z,6.78
2022-08-05T13:43:44.247Z,6.00
2022-08-05T13:46:50.689Z,6.28
2022-08-05T13:49:10.087Z,6.65
2022-08-05T13:51:46.210Z,6.32
2022-08-05T13:54:16.087Z,5.72
2022-08-05T13:56:50.665Z,6.03
2022-08-05T13:59:21.018Z,6.03
2022-08-05T14:01:56.521Z,4.72
2022-08-05T14:04:50.562Z,4.47
2022-08-05T14:07:25.653Z,4.38
2022-08-05T14:10:11.136Z,3.58
2022-08-05T14:12:42.587Z,3.20
2022-08-05T14:16:04.687Z,2.92
2022-08-05T14:18:00.845Z,2.45
2022-08-05T14:20:29.585Z,2.35
2022-08-05T14:22:58.667Z,2.38
2022-08-05T14:25:27.992Z,1.77
2022-08-05T14:27:58.864Z,1.80
2022-08-05T14:30:27.914Z,1.70
2022-08-05T14:32:57.037Z,2.10
2022-08-05T14:35:36.988Z,2.00
2022-08-05T14:38:33.274Z,1.90
2022-08-05T14:41:06.257Z,2.40
2022-08-05T14:43:59.372Z,2.15
2022-08-05T14:46:28.447Z,2.60
2022-08-05T14:48:59.546Z,2.13
2022-08-05T14:51:32.204Z,2.53
2022-08-05T14:54:26.371Z,1.58
2022-08-05T14:56:48.626Z,0.70
2022-08-05T14:59:18.621Z,0.60
2022-08-05T15:01:50.002Z,0.60
2022-08-05T15:04:20.774Z,0.60
2022-08-05T15:06:50.895Z,0.70
2022-08-05T15:09:52.070Z,0.55
2022-08-05T15:12:11.493Z,0.70
2022-08-05T15:14:50.154Z,0.70
2022-08-05T15:17:45.834Z,0.90
2022-08-05T15:20:24.770Z,0.80
2022-08-05T15:22:55.062Z,1.02
2022-08-05T15:25:51.363Z,1.20
2022-08-05T15:28:14.259Z,0.90
2022-08-05T15:30:46.522Z,0.73
2022-08-05T15:34:05.568Z,0.80
2022-08-05T15:36:17.754Z,0.60
2022-08-05T15:41:04.618Z,0.60
2022-08-05T15:41:55.940Z,0.70
2022-08-05T15:44:28.113Z,1.05
2022-08-05T15:47:03.762Z,0.55
2022-08-05T15:49:53.411Z,0.80
2022-08-05T15:52:52.261Z,0.60
2022-08-05T15:55:16.203Z,0.43
2022-08-05T15:57:45.007Z,0.60
2022-08-05T16:00:16.876Z,0.60
2022-08-05T16:02:55.371Z,0.80
2022-08-05T16:05:28.478Z,0.50
2022-08-05T16:07:57.045Z,0.57
2022-08-05T16:10:26.879Z,0.80
2022-08-05T16:12:55.898Z,0.77
2022-08-05T16:15:24.545Z,1.15
2022-08-05T16:18:04.245Z,0.60
2022-08-05T16:20:37.370Z,1.15
2022-08-05T16:23:05.456Z,0.93
2022-08-05T16:25:36.879Z,0.80
2022-08-05T16:28:06.380Z,0.60
2022-08-05T16:30:37.815Z,0.98
2022-08-05T16:33:07.322Z,0.57
2022-08-05T16:35:42.308Z,0.70
2022-08-05T16:38:24.752Z,0.60
2022-08-05T16:41:00.577Z,1.00
2022-08-05T16:43:30.746Z,0.75
2022-08-05T16:46:06.893Z,0.82
2022-08-05T16:48:42.253Z,0.60
2022-08-05T16:51:11.069Z,0.65
2022-08-05T16:54:05.686Z,0.77
2022-08-05T16:56:36.200Z,0.55
2022-08-05T16:59:10.875Z,0.60
2022-08-05T17:01:54.898Z,0.65
2022-08-05T17:07:00.679Z,0.82
2022-08-05T17:09:30.292Z,1.00
2022-08-05T17:12:07.346Z,0.88
2022-08-05T17:14:38.071Z,0.88
2022-08-05T17:17:14.628Z,0.50
2022-08-05T17:19:46.377Z,0.52
2022-08-05T17:22:24.672Z,0.50
2022-08-05T17:24:57.081Z,0.65
2022-08-05T17:27:27.479Z,0.88
2022-08-05T17:30:02.817Z,0.93
2022-08-05T17:32:31.576Z,0.80
2022-08-05T17:35:04.132Z,0.70
2022-08-05T17:37:40.305Z,0.50
2022-08-05T17:40:15.255Z,0.60
2022-08-05T17:42:51.127Z,0.43
2022-08-05T17:45:21.812Z,0.70
2022-08-05T17:47:54.977Z,0.70
2022-08-05T17:50:28.533Z,0.60
2022-08-05T17:52:59.394Z,0.43
2022-08-05T17:55:37.170Z,0.80
2022-08-05T17:58:07.191Z,0.52
2022-08-05T18:00:39.937Z,0.52
2022-08-05T18:03:28.040Z,0.45
2022-08-05T18:06:11.377Z,0.88
2022-08-05T18:08:46.165Z,0.68
2022-08-05T18:11:23.429Z,0.70
2022-08-05T18:13:54.557Z,0.45
2022-08-05T18:16:23.491Z,0.60
2022-08-05T18:18:51.720Z,0.60
2022-08-05T18:21:26.167Z,0.50
2022-08-05T18:23:54.608Z,0.80
2022-08-05T18:26:29.183Z,0.60
2022-08-05T18:29:00.365Z,0.77
2022-08-05T18:31:35.277Z,0.65
2022-08-05T18:34:05.737Z,0.85
2022-08-05T18:36:36.869Z,0.60
2022-08-05T18:39:06.666Z,0.80
2022-08-05T18:41:56.228Z,0.88
2022-08-05T18:44:35.072Z,0.52
2022-08-05T18:47:17.316Z,0.77
2022-08-05T18:50:02.743Z,0.80
2022-08-05T18:52:36.955Z,0.82
2022-08-05T18:55:10.570Z,0.60
2022-08-05T18:57:43.684Z,0.75
2022-08-05T19:00:27.033Z,0.55
2022-08-05T19:03:03.218Z,0.68
2022-08-05T19:06:11.364Z,0.70
2022-08-05T19:08:30.826Z,0.88
2022-08-05T19:11:02.801Z,0.57
2022-08-05T19:13:35.844Z,1.00
2022-08-05T19:16:22.083Z,1.13
2022-08-05T19:18:56.630Z,0.85
2022-08-05T19:21:29.620Z,1.42
2022-08-05T19:24:08.951Z,1.70
2022-08-05T19:26:43.744Z,1.30
2022-08-05T19:29:23.789Z,1.35
2022-08-05T19:31:55.213Z,1.30
2022-08-05T19:34:26.803Z,1.20
2022-08-05T19:36:54.890Z,1.92
2022-08-05T19:39:24.918Z,4.18
2022-08-05T19:42:07.412Z,3.97
2022-08-05T19:44:44.517Z,2.88
2022-08-05T19:47:15.245Z,1.92
2022-08-05T19:49:44.782Z,1.40
2022-08-05T19:52:30.857Z,1.60
2022-08-05T19:55:07.087Z,1.15
2022-08-05T19:58:14.476Z,1.40
2022-08-05T20:00:38.375Z,0.95
2022-08-05T20:03:09.238Z,0.90
2022-08-05T20:05:43.035Z,1.27
2022-08-05T20:08:11.995Z,0.95
2022-08-05T20:10:43.845Z,1.30
2022-08-05T20:13:12.198Z,1.25
2022-08-05T20:18:33.186Z,2.05
2022-08-05T20:21:04.650Z,2.10
2022-08-05T20:23:40.055Z,1.98
2022-08-05T20:26:20.880Z,1.73
2022-08-05T20:28:51.395Z,1.25
2022-08-05T20:31:28.426Z,1.58
2022-08-05T20:34:09.874Z,1.65
2022-08-05T20:36:39.153Z,2.05
2022-08-05T20:39:13.225Z,1.60
2022-08-05T20:41:45.341Z,1.58
2022-08-05T20:44:29.025Z,1.52
2022-08-05T20:46:59.762Z,1.20
2022-08-05T20:49:28.327Z,0.80
2022-08-05T20:51:57.940Z,1.25
2022-08-05T20:54:55.573Z,1.23
2022-08-05T20:57:24.644Z,0.90
2022-08-05T21:00:21.038Z,1.02
2022-08-05T21:02:57.861Z,1.65
2022-08-05T21:05:38.062Z,1.05
2022-08-05T21:08:17.486Z,1.10
2022-08-05T21:10:48.431Z,1.42
2022-08-05T21:16:07.409Z,1.02
2022-08-05T21:18:35.929Z,1.17
2022-08-05T21:21:04.410Z,0.90
2022-08-05T21:23:36.967Z,0.95
2022-08-05T21:26:08.127Z,1.10
2022-08-05T21:28:47.897Z,0.80
2022-08-05T21:31:19.324Z,1.05
2022-08-05T21:33:49.654Z,0.70
2022-08-05T21:36:27.471Z,0.70
2022-08-05T21:38:58.495Z,0.98
2022-08-05T21:41:33.910Z,0.80
2022-08-05T21:44:04.951Z,0.90
2022-08-05T21:46:34.456Z,0.68
2022-08-05T21:49:07.255Z,0.88
2022-08-05T21:52:22.404Z,0.80
2022-08-05T21:54:27.950Z,0.63
2022-08-05T21:57:29.214Z,0.80
2022-08-05T22:00:05.514Z,0.57
2022-08-05T22:02:34.795Z,0.80
2022-08-05T22:05:04.359Z,0.50
2022-08-05T22:07:40.392Z,0.55
2022-08-05T22:10:26.603Z,0.65
2022-08-05T22:12:57.369Z,0.70
2022-08-05T22:15:56.416Z,0.75
2022-08-05T22:18:16.102Z,0.60
2022-08-05T22:24:03.036Z,0.60
2022-08-05T22:26:42.733Z,0.40
2022-08-05T22:29:18.718Z,0.50
2022-08-05T22:31:55.334Z,0.70
2022-08-05T22:34:30.847Z,0.47
2022-08-05T22:36:59.359Z,0.60
2022-08-05T22:39:33.236Z,0.57
2022-08-05T22:42:11.385Z,0.50
2022-08-05T22:44:48.645Z,0.60
2022-08-05T22:47:29.286Z,0.40
2022-08-05T22:50:19.393Z,0.90
2022-08-05T22:52:48.074Z,0.40
2022-08-05T22:55:19.021Z,0.40
2022-08-05T22:57:49.142Z,0.50
2022-08-05T23:00:20.811Z,0.68
2022-08-05T23:02:52.097Z,0.32
2022-08-05T23:05:22.054Z,0.30
2022-08-05T23:07:51.269Z,0.40
2022-08-05T23:10:20.685Z,0.85
2022-08-05T23:12:54.519Z,0.80
2022-08-05T23:15:29.094Z,0.40
2022-08-05T23:18:03.676Z,0.45
2022-08-05T23:20:39.431Z,0.57
2022-08-05T23:23:09.005Z,0.40
2022-08-05T23:25:50.922Z,0.30
2022-08-05T23:28:24.050Z,0.50
2022-08-05T23:31:16.706Z,0.40
2022-08-05T23:34:04.395Z,0.38
2022-08-05T23:36:40.112Z,0.30
2022-08-05T23:39:16.407Z,0.55
2022-08-05T23:41:51.914Z,0.63
2022-08-05T23:44:21.149Z,0.50
2022-08-05T23:46:53.339Z,0.50
2022-08-05T23:49:35.875Z,0.40
2022-08-05T23:52:22.127Z,0.57
2022-08-05T23:54:53.776Z,0.50
2022-08-05T23:57:21.914Z,0.35
